Time;durP1;ratioP1;P1;durP2;ratioP2;P2;SDS_P1;SDS_P2;PMS_P1;PMS_P2;Temp;Humidity;BMP_temperature;BMP_pressure;BME280_temperature;BME280_humidity;BME280_pressure;Samples;Min_cycle;Max_cycle;Signal;HPM_P1;HPM_P2
2022/04/25 00:00:59;;;;;;;11.02;4.00;;;;;;;14.58;84.69;63504.91;5106637;28;20189;-80
2022/04/25 00:03:26;;;;;;;10.18;4.00;;;;;;;14.48;84.92;63496.59;5108603;28;20208;-80
2022/04/25 00:05:54;;;;;;;11.00;4.07;;;;;;;14.42;85.88;63487.78;5108664;28;20260;-80
2022/04/25 00:08:21;;;;;;;8.85;4.63;;;;;;;14.36;86.51;63479.50;5108324;28;20261;-80
2022/04/25 00:10:48;;;;;;;8.48;4.20;;;;;;;14.39;86.88;63485.19;5107859;28;20461;-80
2022/04/25 00:13:15;;;;;;;14.35;4.45;;;;;;;14.30;87.77;63473.28;5108213;28;20286;-80
2022/04/25 00:15:42;;;;;;;13.68;5.57;;;;;;;14.23;88.21;63466.00;5108549;28;20542;-81
2022/04/25 00:18:09;;;;;;;12.38;5.22;;;;;;;14.19;89.24;63463.88;5110106;28;20215;-80
2022/04/25 00:20:36;;;;;;;18.00;5.05;;;;;;;14.20;89.55;63462.38;5112972;28;20512;-79
2022/04/25 00:23:05;;;;;;;9.70;5.38;;;;;;;14.17;89.87;63464.38;5113181;28;20291;-81
2022/04/25 00:25:32;;;;;;;15.13;5.38;;;;;;;14.16;90.39;63461.28;5110607;28;20219;-80
2022/04/25 00:28:00;;;;;;;12.35;4.70;;;;;;;14.12;90.71;63454.06;5109205;28;20291;-80
2022/04/25 00:30:28;;;;;;;10.57;4.32;;;;;;;14.14;90.67;63454.09;5108024;28;20228;-80
2022/04/25 00:32:55;;;;;;;14.25;5.18;;;;;;;13.98;91.73;63442.09;5108612;28;20220;-81
2022/04/25 00:35:22;;;;;;;14.57;4.90;;;;;;;13.97;91.80;63441.56;5116329;28;20196;-79
2022/04/25 00:37:49;;;;;;;10.95;3.58;;;;;;;14.00;91.50;63444.69;5116618;28;20257;-80
2022/04/25 00:40:19;;;;;;;6.78;4.47;;;;;;;13.94;91.70;63441.03;5115810;28;20203;-80
2022/04/25 00:42:46;;;;;;;14.90;4.60;;;;;;;13.91;91.68;63435.34;5108787;28;20218;-80
2022/04/25 00:45:14;;;;;;;15.52;4.25;;;;;;;13.93;91.66;63437.41;5108889;28;20191;-79
2022/04/25 00:47:41;;;;;;;10.63;4.80;;;;;;;13.98;91.43;63442.09;5108310;28;20211;-80
2022/04/25 00:50:09;;;;;;;9.27;3.97;;;;;;;13.93;92.02;63437.41;5107732;28;20276;-80
2022/04/25 00:52:37;;;;;;;18.98;4.82;;;;;;;13.89;92.91;63431.22;5109420;28;20219;-79
2022/04/25 00:55:07;;;;;;;7.93;4.03;;;;;;;13.72;94.17;63418.16;5112517;28;20233;-80
2022/04/25 00:57:36;;;;;;;14.23;4.65;;;;;;;13.87;93.80;63431.69;5112447;28;20212;-81
2022/04/25 01:00:06;;;;;;;12.32;4.50;;;;;;;13.89;93.04;63428.66;5113045;28;20219;-80
2022/04/25 01:02:33;;;;;;;8.25;4.07;;;;;;;13.93;92.54;63434.84;5114068;28;20234;-81
2022/04/25 01:05:00;;;;;;;13.93;4.75;;;;;;;13.98;92.40;63442.59;5117366;28;20222;-80
2022/04/25 01:07:27;;;;;;;6.72;4.05;;;;;;;13.94;92.82;63438.47;5116990;28;20220;-80
2022/04/25 01:09:55;;;;;;;16.05;4.97;;;;;;;13.93;92.78;63439.47;5117402;28;20601;-80
2022/04/25 01:12:22;;;;;;;5.10;3.88;;;;;;;13.91;92.75;63432.78;5116405;28;20520;-79
2022/04/25 01:14:58;;;;;;;15.23;4.97;;;;;;;13.90;92.76;63436.88;5114353;28;20196;-79
2022/04/25 01:17:25;;;;;;;15.68;4.05;;;;;;;13.90;92.74;63434.81;5113034;28;20215;-80
2022/04/25 01:19:52;;;;;;;12.75;5.07;;;;;;;13.87;92.97;63428.63;5112610;28;20566;-81
2022/04/25 01:22:22;;;;;;;8.10;4.47;;;;;;;13.59;95.72;63400.09;5111474;28;20216;-80
2022/04/25 01:27:35;;;;;;;6.85;3.78;;;;;;;13.62;94.60;63405.22;5111858;28;20218;-80
2022/04/25 01:30:03;;;;;;;12.77;4.55;;;;;;;13.65;94.21;63406.31;5111573;28;20227;-81
2022/04/25 01:32:30;;;;;;;10.18;4.20;;;;;;;13.59;94.47;63405.22;5113001;28;20216;-80
2022/04/25 01:34:57;;;;;;;8.35;3.83;;;;;;;13.59;94.67;63400.09;5112906;28;20200;-80
2022/04/25 01:37:24;;;;;;;9.57;4.10;;;;;;;13.60;94.69;63403.16;5112070;28;20268;-80
2022/04/25 01:39:54;;;;;;;13.77;4.22;;;;;;;13.53;94.89;63395.91;5110570;28;20248;-79
2022/04/25 01:42:22;;;;;;;11.00;4.28;;;;;;;13.57;94.19;63397.50;5110416;28;20253;-80
2022/04/25 01:44:49;;;;;;;11.02;3.88;;;;;;;13.54;94.79;63400.03;5110549;28;20196;-81
2022/04/25 01:47:16;;;;;;;12.00;4.25;;;;;;;13.47;95.12;63387.13;5109852;28;20309;-80
2022/04/25 01:49:44;;;;;;;10.63;4.57;;;;;;;13.33;96.12;63373.09;5109113;28;20231;-80
2022/04/25 01:52:18;;;;;;;11.68;4.53;;;;;;;13.38;95.59;63377.78;5111316;28;20223;-81
2022/04/25 01:54:45;;;;;;;7.65;4.15;;;;;;;13.34;95.29;63376.69;5112832;28;20188;-80
2022/04/25 01:57:13;;;;;;;11.40;4.55;;;;;;;13.22;96.10;63363.75;5113810;28;20222;-80
2022/04/25 01:59:40;;;;;;;8.52;4.38;;;;;;;13.18;97.28;63362.13;5111644;28;20508;-80
2022/04/25 02:02:08;;;;;;;10.25;5.20;;;;;;;13.17;97.57;63355.97;5110998;28;20220;-81
2022/04/25 02:04:34;;;;;;;10.52;4.95;;;;;;;13.10;98.93;63348.75;5110622;28;20206;-81
2022/04/25 02:07:01;;;;;;;13.15;4.78;;;;;;;13.05;99.75;63346.63;5111350;28;20200;-80
2022/04/25 02:09:28;;;;;;;10.05;4.88;;;;;;;13.04;100.00;63342.50;5110659;28;20224;-80
2022/04/25 02:11:55;;;;;;;15.10;5.63;;;;;;;12.84;100.00;63322.25;5111056;28;20192;-80
2022/04/25 02:14:23;;;;;;;23.15;5.82;;;;;;;12.82;100.00;63323.25;5111067;28;20411;-80
2022/04/25 02:16:50;;;;;;;10.43;4.95;;;;;;;12.97;100.00;63335.75;5110802;28;20196;-80
2022/04/25 02:19:17;;;;;;;14.95;5.18;;;;;;;12.87;100.00;63327.41;5111234;28;20192;-80
2022/04/25 02:21:44;;;;;;;12.45;5.38;;;;;;;12.79;100.00;63322.69;5111543;28;20192;-80
2022/04/25 02:24:11;;;;;;;16.00;5.80;;;;;;;12.82;100.00;63317.13;5112288;28;20208;-81
2022/04/25 02:26:38;;;;;;;10.60;4.80;;;;;;;12.75;100.00;63318.53;5112247;28;20192;-80
2022/04/25 02:29:05;;;;;;;9.50;4.55;;;;;;;12.75;100.00;63315.50;5112492;28;20219;-80
2022/04/25 02:31:33;;;;;;;11.18;5.03;;;;;;;12.74;100.00;63314.44;5113407;28;20232;-81
2022/04/25 02:34:00;;;;;;;11.30;3.92;;;;;;;12.75;100.00;63316.00;5113218;28;20220;-80
2022/04/25 02:36:27;;;;;;;13.18;5.70;;;;;;;12.71;100.00;63311.34;5112925;28;20200;-79
2022/04/25 02:38:54;;;;;;;19.63;6.40;;;;;;;12.71;100.00;63308.78;5113342;28;20220;-79
2022/04/25 02:41:21;;;;;;;13.75;5.18;;;;;;;12.71;100.00;63311.34;5113225;28;20505;-80
2022/04/25 02:43:47;;;;;;;13.82;5.40;;;;;;;12.72;100.00;63312.88;5112773;28;20387;-80
2022/04/25 02:46:16;;;;;;;14.98;5.43;;;;;;;12.70;100.00;63310.81;5111219;28;20493;-80
2022/04/25 02:48:46;;;;;;;8.35;5.40;;;;;;;12.63;100.00;63305.59;5111660;28;20219;-79
2022/04/25 02:51:16;;;;;;;16.17;5.85;;;;;;;12.64;100.00;63302.03;5112295;28;20370;-78
2022/04/25 02:53:43;;;;;;;11.98;4.82;;;;;;;12.65;100.00;63305.63;5113831;28;20216;-79
2022/04/25 02:56:10;;;;;;;19.40;5.50;;;;;;;12.65;100.00;63303.06;5113719;28;20196;-79
2022/04/25 02:58:40;;;;;;;10.20;5.63;;;;;;;12.61;100.00;63304.03;5112697;28;20216;-80
2022/04/25 03:01:08;;;;;;;11.90;4.53;;;;;;;12.53;100.00;63293.19;5111980;28;20472;-80
2022/04/25 03:03:36;;;;;;;13.95;5.50;;;;;;;12.52;100.00;63294.19;5111848;28;20216;-80
2022/04/25 03:06:07;;;;;;;11.35;4.65;;;;;;;12.50;100.00;63289.56;5112194;28;20195;-80
2022/04/25 03:08:35;;;;;;;11.80;5.03;;;;;;;12.41;100.00;63283.28;5111297;28;20283;-80
2022/04/25 03:11:04;;;;;;;11.30;4.57;;;;;;;12.30;100.00;63266.28;5111666;28;20231;-80
2022/04/25 03:13:31;;;;;;;9.30;4.60;;;;;;;12.28;100.00;63264.72;5112466;28;20524;-80
2022/04/25 03:15:58;;;;;;;14.13;4.30;;;;;;;12.30;100.00;63266.78;5112602;28;20373;-80
2022/04/25 03:18:25;;;;;;;13.23;4.82;;;;;;;12.28;100.00;63271.84;5114180;28;20239;-79
2022/04/25 03:20:52;;;;;;;16.17;4.72;;;;;;;12.29;100.00;63265.75;5114453;28;20188;-79
2022/04/25 03:23:21;;;;;;;10.45;4.47;;;;;;;12.33;100.00;63271.94;5114060;28;20212;-80
2022/04/25 03:25:49;;;;;;;21.70;4.57;;;;;;;12.32;100.00;63265.78;5113453;28;20222;-80
2022/04/25 03:28:16;;;;;;;13.65;4.88;;;;;;;12.33;100.00;63269.38;5112479;28;20315;-79
2022/04/25 03:30:43;;;;;;;11.02;4.35;;;;;;;12.32;100.00;63270.91;5112409;28;20235;-79
2022/04/25 03:33:11;;;;;;;10.35;4.65;;;;;;;12.29;100.00;63265.75;5110444;28;20215;-80
2022/04/25 03:35:39;;;;;;;14.90;4.75;;;;;;;12.35;100.00;63271.97;5110824;28;20381;-80
2022/04/25 03:38:07;;;;;;;10.73;5.18;;;;;;;12.31;100.00;63267.81;5110040;28;20275;-79
2022/04/25 03:40:36;;;;;;;9.88;4.30;;;;;;;12.30;100.00;63269.34;5110902;28;20234;-80
2022/04/25 03:43:03;;;;;;;12.93;3.97;;;;;;;12.37;100.00;63276.09;5112374;28;20242;-80
2022/04/25 03:45:30;;;;;;;8.82;4.20;;;;;;;12.35;100.00;63271.47;5112317;28;20196;-80
2022/04/25 03:47:56;;;;;;;7.00;4.35;;;;;;;12.35;100.00;63269.44;5112338;28;20269;-81
2022/04/25 03:50:23;;;;;;;8.02;3.80;;;;;;;12.38;100.00;63277.63;5113296;28;20279;-80
2022/04/25 03:52:50;;;;;;;12.75;4.20;;;;;;;12.44;100.00;63286.41;5113177;28;20452;-79
2022/04/25 03:58:06;;;;;;;11.00;4.40;;;;;;;12.46;100.00;63283.38;5108178;28;20238;-80
2022/04/25 04:00:34;;;;;;;8.50;4.72;;;;;;;12.50;100.00;63290.06;5107745;28;20222;-80
2022/04/25 04:03:01;;;;;;;11.85;5.15;;;;;;;12.62;100.00;63299.44;5107670;28;20220;-80
2022/04/25 04:05:29;;;;;;;14.07;5.60;;;;;;;12.64;100.00;63301.53;5107995;28;20227;-80
2022/04/25 04:07:55;;;;;;;18.85;5.03;;;;;;;12.71;100.00;63306.22;5108574;28;20227;-79
2022/04/25 04:10:22;;;;;;;9.32;5.57;;;;;;;12.73;100.00;63311.34;5108615;28;20228;-80
2022/04/25 04:12:49;;;;;;;14.40;5.80;;;;;;;12.76;100.00;63308.84;5107861;28;20219;-80
2022/04/25 04:15:18;;;;;;;14.60;5.28;;;;;;;12.81;100.00;63324.25;5108243;28;20237;-81
2022/04/25 04:17:45;;;;;;;16.33;6.13;;;;;;;12.84;100.00;63322.25;5106556;28;20277;-80
2022/04/25 04:20:14;;;;;;;9.73;4.97;;;;;;;12.98;100.00;63338.81;5109257;28;20388;-79
2022/04/25 04:22:41;;;;;;;17.38;5.55;;;;;;;13.05;100.00;63343.53;5108379;28;20224;-79
2022/04/25 04:25:10;;;;;;;19.30;6.13;;;;;;;13.16;100.00;63355.47;5107886;28;20203;-80
2022/04/25 04:27:37;;;;;;;17.83;5.25;;;;;;;13.24;100.00;63368.88;5106360;28;20279;-79
2022/04/25 04:30:07;;;;;;;19.85;5.32;;;;;;;13.27;99.95;63369.44;5105729;28;20501;-81
2022/04/25 04:32:38;;;;;;;15.50;5.20;;;;;;;13.41;99.55;63383.97;5107082;28;20219;-80
2022/04/25 04:35:08;;;;;;;14.30;4.85;;;;;;;13.52;98.78;63390.25;5108659;28;20375;-80
2022/04/25 04:37:34;;;;;;;14.30;5.22;;;;;;;13.60;96.63;63403.69;5106851;28;20226;-79
2022/04/25 04:42:46;;;;;;;10.93;5.50;;;;;;;13.87;94.06;63431.19;5108116;28;20222;-79
2022/04/25 04:45:15;;;;;;;9.73;4.88;;;;;;;13.96;94.85;63437.47;5107193;28;20224;-80
2022/04/25 04:47:43;;;;;;;9.55;4.85;;;;;;;14.11;93.95;63455.59;5106429;28;20480;-79
2022/04/25 04:50:14;;;;;;;10.57;4.43;;;;;;;14.16;94.19;63460.78;5106419;28;20226;-80
2022/04/25 04:52:45;;;;;;;15.10;4.30;;;;;;;14.31;93.88;63473.81;5109860;28;20349;-80
2022/04/25 04:55:13;;;;;;;7.63;4.47;;;;;;;14.44;92.57;63490.41;5110430;28;20205;-82
2022/04/25 04:57:40;;;;;;;11.68;4.00;;;;;;;14.50;93.06;63494.06;5108902;28;20230;-80
2022/04/25 05:00:09;;;;;;;8.27;4.95;;;;;;;14.62;91.74;63509.09;5108103;28;20199;-80
2022/04/25 05:02:36;;;;;;;11.27;4.20;;;;;;;14.80;89.94;63527.78;5107729;28;20222;-80
2022/04/25 05:05:06;;;;;;;12.57;3.67;;;;;;;14.96;89.00;63536.72;5107793;28;20196;-80
2022/04/25 05:07:34;;;;;;;11.27;4.45;;;;;;;15.07;87.92;63560.97;5107190;28;20313;-81
2022/04/25 05:10:03;;;;;;;12.05;4.00;;;;;;;15.26;87.23;63575.06;5108119;28;20412;-81
2022/04/25 05:12:30;;;;;;;14.43;5.15;;;;;;;15.30;86.02;63578.69;5108262;28;20668;-80
2022/04/25 05:14:57;;;;;;;14.73;5.63;;;;;;;15.14;91.48;63565.16;5107314;28;20266;-80
2022/04/25 05:17:24;;;;;;;15.75;4.65;;;;;;;14.78;90.87;63523.16;5108374;28;20225;-80
2022/04/25 05:19:51;;;;;;;14.10;4.70;;;;;;;14.98;86.59;63545.97;5109261;28;20203;-80
2022/04/25 05:22:19;;;;;;;11.52;4.88;;;;;;;15.21;85.09;63562.16;5109715;28;20268;-80
2022/04/25 05:24:46;;;;;;;18.80;4.95;;;;;;;15.33;88.17;63574.63;5113579;28;20208;-80
2022/04/25 05:27:13;;;;;;;18.45;4.95;;;;;;;15.55;88.35;63604.72;5113748;28;20256;-80
2022/04/25 05:29:40;;;;;;;11.65;5.65;;;;;;;15.46;89.33;63601.00;5114675;28;20218;-79
2022/04/25 05:32:07;;;;;;;17.73;4.63;;;;;;;15.28;87.37;63576.63;5109404;28;20235;-81
2022/04/25 05:34:34;;;;;;;14.18;4.82;;;;;;;15.44;89.05;63593.78;5107453;28;20237;-80
2022/04/25 05:37:01;;;;;;;15.13;6.03;;;;;;;15.38;87.44;63587.00;5107257;28;20212;-81
2022/04/25 05:39:30;;;;;;;7.95;5.50;;;;;;;14.78;87.31;63527.75;5109274;28;20214;-81
2022/04/25 05:41:57;;;;;;;13.68;5.05;;;;;;;14.70;89.00;63514.81;5111086;28;20207;-81
2022/04/25 05:44:24;;;;;;;17.38;5.63;;;;;;;14.62;91.21;63513.69;5111358;28;20196;-81
2022/04/25 05:46:51;;;;;;;13.68;5.95;;;;;;;14.58;92.99;63504.41;5111165;28;20203;-80
2022/04/25 05:52:05;;;;;;;19.60;5.78;;;;;;;14.44;92.75;63487.31;5110507;28;20234;-80
2022/04/25 05:54:34;;;;;;;15.75;5.38;;;;;;;14.66;90.07;63513.25;5110148;28;20546;-82
2022/04/25 05:57:02;;;;;;;17.75;5.40;;;;;;;14.80;90.99;63520.09;5110786;28;20199;-79
2022/04/25 05:59:29;;;;;;;17.88;5.55;;;;;;;15.05;86.54;63550.66;5110206;28;20230;-81
2022/04/25 06:01:56;;;;;;;9.70;5.95;;;;;;;14.80;86.90;63527.25;5110133;28;20218;-79
2022/04/25 06:04:23;;;;;;;11.88;5.03;;;;;;;15.04;87.60;63549.63;5110372;28;20196;-81
2022/04/25 06:06:50;;;;;;;13.13;5.05;;;;;;;14.96;84.62;63541.34;5110290;28;20226;-80
2022/04/25 06:09:18;;;;;;;19.40;5.07;;;;;;;14.70;86.28;63516.88;5110100;28;20188;-80
2022/04/25 06:11:46;;;;;;;14.75;5.32;;;;;;;14.69;87.82;63518.41;5109675;28;20227;-82
2022/04/25 06:14:13;;;;;;;12.13;5.85;;;;;;;14.75;87.60;63520.00;5110141;28;20192;-80
2022/04/25 06:16:41;;;;;;;19.70;5.43;;;;;;;15.04;87.15;63550.16;5109623;28;20199;-80
2022/04/25 06:19:08;;;;;;;20.65;5.72;;;;;;;15.24;84.41;63569.91;5109921;28;20212;-80
2022/04/25 06:21:34;;;;;;;14.85;5.45;;;;;;;15.29;84.16;63575.59;5109977;28;20195;-81
2022/04/25 06:24:01;;;;;;;15.70;4.38;;;;;;;15.63;83.47;63613.03;5109992;28;20223;-79
2022/04/25 06:26:30;;;;;;;10.65;4.95;;;;;;;15.92;80.76;63643.69;5109635;28;20240;-82
2022/04/25 06:28:58;;;;;;;18.80;6.30;;;;;;;15.67;80.58;63617.69;5109511;28;20399;-80
2022/04/25 06:31:25;;;;;;;10.77;5.53;;;;;;;15.89;81.75;63640.56;5109186;28;20439;-81
2022/04/25 06:33:52;;;;;;;20.90;5.15;;;;;;;16.18;78.05;63672.78;5109437;28;20222;-81
2022/04/25 06:36:19;;;;;;;16.00;5.30;;;;;;;16.28;78.37;63678.03;5109047;28;20230;-81
2022/04/25 06:38:45;;;;;;;15.80;5.70;;;;;;;16.41;77.38;63691.06;5109607;28;20216;-80
2022/04/25 06:41:14;;;;;;;15.13;6.38;;;;;;;16.42;76.28;63690.03;5110074;28;20199;-81
2022/04/25 06:43:41;;;;;;;21.70;5.97;;;;;;;16.49;74.79;63702.47;5109160;28;20277;-79
2022/04/25 06:46:09;;;;;;;22.33;4.70;;;;;;;16.42;74.31;63690.03;5108577;28;20195;-80
2022/04/25 06:48:36;;;;;;;13.15;5.00;;;;;;;16.29;71.47;63681.13;5107389;28;20231;-79
2022/04/25 06:51:03;;;;;;;19.83;5.28;;;;;;;16.35;73.47;63684.78;5107800;28;20231;-79
2022/04/25 06:53:30;;;;;;;18.30;5.78;;;;;;;16.66;70.82;63717.06;5109509;28;20216;-81
2022/04/25 06:55:57;;;;;;;10.85;4.43;;;;;;;16.82;69.51;63733.72;5109029;28;20188;-79
2022/04/25 06:58:26;;;;;;;15.25;4.82;;;;;;;16.70;70.15;63724.34;5108936;28;20219;-80
2022/04/25 07:00:53;;;;;;;18.85;5.32;;;;;;;16.72;70.43;63726.41;5109600;28;20289;-80
2022/04/25 07:03:24;;;;;;;22.67;5.38;;;;;;;16.81;70.55;63730.09;5109081;28;20215;-81
2022/04/25 07:05:54;;;;;;;18.10;4.50;;;;;;;17.03;69.88;63761.22;5108636;28;20222;-80
2022/04/25 07:08:21;;;;;;;14.52;5.13;;;;;;;17.16;68.23;63766.53;5108741;28;20238;-81
2022/04/25 07:10:48;;;;;;;13.35;5.18;;;;;;;17.32;66.35;63788.34;5108725;28;20198;-80
2022/04/25 07:13:15;;;;;;;21.77;5.72;;;;;;;17.53;65.92;63807.66;5109711;28;20215;-79
2022/04/25 07:15:42;;;;;;;16.60;5.35;;;;;;;17.66;63.58;63821.19;5113056;28;20191;-81
2022/04/25 07:18:08;;;;;;;20.15;5.30;;;;;;;17.82;63.18;63840.44;5113083;28;20253;-79
2022/04/25 07:20:37;;;;;;;26.40;5.65;;;;;;;17.93;64.41;63851.88;5110301;28;20233;-80
2022/04/25 07:28:53;;;;;;;16.42;4.78;;;;;;;17.93;62.64;63846.72;5109607;28;20254;-81
2022/04/25 07:31:20;;;;;;;13.20;4.43;;;;;;;18.09;61.29;63865.44;5108474;28;20570;-80
2022/04/25 07:33:47;;;;;;;17.27;4.82;;;;;;;18.15;62.97;63871.69;5108708;28;20222;-81
2022/04/25 07:36:17;;;;;;;16.35;4.40;;;;;;;18.14;59.96;63871.16;5109539;28;20195;-80
2022/04/25 07:38:44;;;;;;;17.77;5.70;;;;;;;18.39;60.51;63902.38;5109065;28;20210;-80
2022/04/25 07:41:13;;;;;;;17.00;4.72;;;;;;;18.64;59.58;63922.25;5108127;28;20429;-81
2022/04/25 07:43:40;;;;;;;14.93;4.60;;;;;;;18.91;55.94;63953.50;5107741;28;20219;-81
2022/04/25 07:46:08;;;;;;;22.58;4.68;;;;;;;18.79;56.01;63943.03;5109101;28;20237;-79
2022/04/25 07:48:34;;;;;;;17.25;4.32;;;;;;;18.71;56.18;63935.22;5107010;28;20215;-80
2022/04/25 07:51:02;;;;;;;11.38;4.05;;;;;;;19.00;56.16;63962.88;5110124;28;20496;-80
2022/04/25 07:53:31;;;;;;;18.17;4.22;;;;;;;19.18;54.75;63981.13;5108504;28;20531;-81
2022/04/25 07:55:58;;;;;;;15.10;4.28;;;;;;;19.10;53.62;63972.78;5107103;28;20230;-80
2022/04/25 07:58:25;;;;;;;16.52;3.90;;;;;;;19.05;52.87;63968.06;5107968;28;20260;-80
2022/04/25 08:00:52;;;;;;;18.05;4.78;;;;;;;19.19;54.06;63982.69;5107799;28;20197;-80
2022/04/25 08:03:19;;;;;;;13.10;4.20;;;;;;;19.38;53.88;64007.69;5107424;28;20437;-80
2022/04/25 08:05:45;;;;;;;23.38;4.32;;;;;;;19.25;53.87;63985.84;5108190;28;20195;-80
2022/04/25 08:08:13;;;;;;;23.05;4.22;;;;;;;19.42;55.33;64003.56;5107860;28;20253;-80
2022/04/25 08:10:42;;;;;;;19.58;5.05;;;;;;;19.65;52.76;64030.16;5108004;28;20215;-80
2022/04/25 08:18:38;;;;;;;10.40;3.22;;;;;;;19.98;46.92;64064.06;5108157;28;20237;-80
2022/04/25 08:21:05;;;;;;;26.67;4.20;;;;;;;19.87;45.17;64055.69;5107755;28;20437;-80
2022/04/25 08:23:32;;;;;;;10.35;3.83;;;;;;;19.77;45.72;64039.56;5107982;28;20430;-80
2022/04/25 08:26:00;;;;;;;7.28;2.83;;;;;;;19.92;45.71;64057.78;5107834;28;20184;-80
2022/04/25 08:28:27;;;;;;;15.13;3.60;;;;;;;20.24;45.26;64091.72;5107077;28;20215;-80
2022/04/25 08:30:54;;;;;;;16.58;3.60;;;;;;;20.38;44.56;64103.75;5107100;28;20376;-81
2022/04/25 08:33:21;;;;;;;8.90;3.58;;;;;;;20.49;43.19;64120.41;5108249;28;20231;-80
2022/04/25 08:35:48;;;;;;;13.25;3.67;;;;;;;20.62;42.15;64131.38;5108521;28;20195;-80
2022/04/25 08:38:14;;;;;;;12.68;3.80;;;;;;;20.50;42.02;64120.94;5109159;28;20237;-80
2022/04/25 08:40:43;;;;;;;15.13;3.17;;;;;;;20.55;41.85;64126.66;5108495;28;20196;-80
2022/04/25 08:43:13;;;;;;;15.55;3.15;;;;;;;20.47;38.70;64115.72;5107792;28;20290;-80
2022/04/25 08:45:41;;;;;;;19.08;3.65;;;;;;;20.74;41.43;64143.41;5106697;28;20465;-85
2022/04/25 08:48:09;;;;;;;14.82;4.03;;;;;;;20.92;40.21;64159.59;5107305;28;20285;-79
2022/04/25 08:50:38;;;;;;;16.15;3.42;;;;;;;21.07;38.95;64174.75;5106600;28;20210;-80
2022/04/25 08:53:10;;;;;;;14.77;2.95;;;;;;;21.11;36.26;64181.50;5107284;28;20235;-82
2022/04/25 08:55:38;;;;;;;17.10;3.30;;;;;;;21.11;35.17;64184.63;5105752;28;20229;-79
2022/04/25 08:58:06;;;;;;;12.25;2.75;;;;;;;21.19;36.54;64189.88;5111264;28;20219;-82
2022/04/25 09:00:34;;;;;;;12.27;2.47;;;;;;;21.23;35.59;64194.03;5108356;28;20204;-79
2022/04/25 09:03:01;;;;;;;15.50;3.03;;;;;;;21.31;34.85;64205.50;5106114;28;20273;-81
2022/04/25 09:05:28;;;;;;;13.95;3.33;;;;;;;21.29;32.99;64205.50;5105862;28;20191;-80
2022/04/25 09:07:55;;;;;;;20.48;3.72;;;;;;;21.07;33.69;64177.84;5106516;28;20215;-80
2022/04/25 09:10:22;;;;;;;15.77;2.72;;;;;;;21.18;33.80;64186.75;5106866;28;20203;-81
2022/04/25 09:12:49;;;;;;;18.33;2.47;;;;;;;21.24;33.34;64197.69;5111291;28;20235;-81
2022/04/25 09:15:20;;;;;;;8.07;2.72;;;;;;;21.29;33.90;64202.91;5115522;28;20196;-81
2022/04/25 09:17:48;;;;;;;21.33;2.60;;;;;;;21.34;32.30;64208.13;5112758;28;20394;-81
2022/04/25 09:20:16;;;;;;;14.18;2.40;;;;;;;21.41;34.43;64212.84;5111919;28;20434;-81
2022/04/25 09:22:43;;;;;;;10.02;2.70;;;;;;;21.83;33.04;64256.22;5111481;28;20230;-82
2022/04/25 09:25:11;;;;;;;10.65;2.90;;;;;;;21.75;31.78;64251.50;5111429;28;20566;-80
2022/04/25 09:27:39;;;;;;;10.13;1.95;;;;;;;21.82;31.71;64255.69;5118219;28;20243;-79
2022/04/25 09:30:20;;;;;;;17.67;3.25;;;;;;;21.62;32.11;64237.38;5120032;28;20202;-80
2022/04/25 09:32:50;;;;;;;16.05;3.33;;;;;;;21.85;32.43;64258.31;5112540;28;20279;-79
2022/04/25 09:35:32;;;;;;;13.85;2.55;;;;;;;21.96;31.20;64269.81;5112463;28;20213;-79
2022/04/25 09:38:01;;;;;;;17.67;2.95;;;;;;;21.92;31.74;64266.16;5111403;28;20223;-80
2022/04/25 09:40:30;;;;;;;36.85;4.10;;;;;;;21.88;31.11;64261.97;5111423;28;20228;-81
2022/04/25 09:43:07;;;;;;;15.38;3.47;;;;;;;21.94;31.83;64265.66;5113245;28;20215;-79
2022/04/25 09:45:35;;;;;;;9.73;2.75;;;;;;;22.02;30.62;64281.28;5115824;28;20233;-80
2022/04/25 09:48:09;;;;;;;13.38;2.45;;;;;;;22.16;30.42;64293.81;5114457;28;20216;-81
2022/04/25 09:50:37;;;;;;;16.85;2.97;;;;;;;22.31;31.20;64306.38;5114240;28;20196;-80
2022/04/25 09:53:05;;;;;;;6.70;2.08;;;;;;;22.39;30.78;64314.75;5110983;28;20241;-80
2022/04/25 09:55:33;;;;;;;15.15;2.55;;;;;;;22.00;30.54;64276.59;5111571;28;20233;-80
2022/04/25 09:58:13;;;;;;;11.88;2.33;;;;;;;21.70;31.43;64243.16;5110889;28;20244;-81
2022/04/25 10:00:40;;;;;;;8.90;2.53;;;;;;;21.86;33.14;64257.28;5110490;28;20493;-80
2022/04/25 10:03:10;;;;;;;13.70;2.78;;;;;;;22.28;32.43;64305.84;5110240;28;20415;-80
2022/04/25 10:05:41;;;;;;;6.50;1.83;;;;;;;22.62;29.23;64338.81;5108817;28;20199;-80
2022/04/25 10:08:10;;;;;;;13.73;1.98;;;;;;;22.88;30.91;64369.09;5109055;28;20226;-80
2022/04/25 10:10:41;;;;;;;14.95;2.65;;;;;;;23.17;29.65;64395.81;5108992;28;20191;-79
2022/04/25 10:13:23;;;;;;;12.15;3.25;;;;;;;23.22;29.56;64403.63;5109033;28;20430;-80
2022/04/25 10:15:49;;;;;;;13.77;2.78;;;;;;;23.10;30.07;64391.59;5109940;28;20199;-80
2022/04/25 10:18:18;;;;;;;15.13;3.03;;;;;;;23.20;29.64;64404.13;5108217;28;20215;-80
2022/04/25 10:20:46;;;;;;;16.05;3.08;;;;;;;23.14;29.38;64395.25;5109381;28;20195;-80
2022/04/25 10:23:16;;;;;;;14.93;2.38;;;;;;;23.11;28.91;64389.53;5110405;28;20324;-80
2022/04/25 10:25:56;;;;;;;22.10;2.60;;;;;;;22.66;29.13;64337.78;5108919;28;20202;-79
2022/04/25 10:28:29;;;;;;;10.93;2.47;;;;;;;23.13;29.71;64391.59;5110077;28;20317;-79
2022/04/25 10:31:02;;;;;;;7.70;2.05;;;;;;;23.39;28.72;64416.22;5109437;28;20195;-81
2022/04/25 10:33:49;;;;;;;11.75;2.22;;;;;;;23.48;26.90;64425.66;5112072;28;20536;-80
2022/04/25 10:37:02;;;;;;;8.30;2.17;;;;;;;23.23;27.84;64407.28;5109899;28;20191;-80
2022/04/25 10:39:29;;;;;;;22.33;2.38;;;;;;;23.18;27.91;64402.03;5112648;28;20199;-80
2022/04/25 10:45:03;;;;;;;8.32;1.92;;;;;;;23.41;26.48;64423.53;5112011;28;20198;-79
2022/04/25 10:47:30;;;;;;;10.52;2.38;;;;;;;23.58;26.77;64438.72;5113051;28;20215;-79
2022/04/25 10:50:11;;;;;;;11.35;2.30;;;;;;;23.71;24.94;64452.31;5113312;28;20196;-79
2022/04/25 10:52:55;;;;;;;20.52;2.70;;;;;;;23.81;25.21;64468.50;5110104;28;20246;-80
2022/04/25 10:55:33;;;;;;;15.05;2.65;;;;;;;23.75;24.76;64454.41;5110030;28;20195;-80
2022/04/25 10:58:19;;;;;;;4.30;1.80;;;;;;;23.93;23.90;64475.34;5110779;28;20215;-80
2022/04/25 11:00:51;;;;;;;9.75;2.20;;;;;;;24.02;24.54;64490.00;5109627;28;20241;-80
2022/04/25 11:03:20;;;;;;;7.20;1.73;;;;;;;23.89;24.72;64466.47;5111491;28;20219;-81
2022/04/25 11:05:50;;;;;;;13.00;2.40;;;;;;;23.58;25.57;64439.25;5111753;28;20199;-82
2022/04/25 11:08:28;;;;;;;8.02;2.72;;;;;;;23.80;26.22;64464.84;5111030;28;20219;-80
2022/04/25 11:11:03;;;;;;;10.80;2.22;;;;;;;23.80;24.96;64464.31;5110693;28;20191;-79
2022/04/25 11:13:32;;;;;;;11.10;1.80;;;;;;;23.89;26.28;64473.75;5109115;28;20287;-80
2022/04/25 11:16:01;;;;;;;14.50;1.83;;;;;;;23.91;29.24;64476.38;5107804;28;20195;-78
2022/04/25 11:18:33;;;;;;;8.13;2.40;;;;;;;24.14;24.75;64502.53;5108675;28;20222;-80
2022/04/25 11:21:04;;;;;;;12.40;2.15;;;;;;;24.16;24.55;64499.41;5109372;28;20368;-79
2022/04/25 11:23:33;;;;;;;15.40;2.42;;;;;;;23.89;25.58;64476.34;5108439;28;20234;-81
2022/04/25 11:26:04;;;;;;;10.38;2.33;;;;;;;23.34;26.15;64414.13;5108396;28;20266;-80
2022/04/25 11:28:33;;;;;;;10.93;2.40;;;;;;;23.54;26.83;64437.66;5108080;28;20279;-80
2022/04/25 11:31:22;;;;;;;7.38;2.08;;;;;;;24.09;25.30;64494.19;5108756;28;20248;-80
2022/04/25 11:33:51;;;;;;;12.95;2.72;;;;;;;24.02;24.72;64487.91;5106652;28;20433;-81
2022/04/25 11:36:23;;;;;;;14.75;2.05;;;;;;;24.03;25.70;64485.81;5107685;28;20195;-80
2022/04/25 11:41:43;;;;;;;9.85;1.92;;;;;;;23.91;24.45;64473.25;5091578;28;20252;-79
2022/04/25 11:44:09;;;;;;;13.80;2.53;;;;;;;24.33;24.50;64514.09;5106640;28;20200;-80
2022/04/25 11:46:37;;;;;;;7.28;2.30;;;;;;;24.61;24.66;64546.03;5106839;28;20203;-79
2022/04/25 11:49:05;;;;;;;8.05;1.83;;;;;;;24.68;23.37;64558.53;5107123;28;20229;-80
2022/04/25 11:51:35;;;;;;;18.88;2.85;;;;;;;24.72;22.79;64558.06;5107173;28;20254;-81
2022/04/25 11:54:04;;;;;;;12.40;1.80;;;;;;;25.04;23.47;64591.06;5106646;28;20231;-80
2022/04/25 11:56:33;;;;;;;9.88;2.10;;;;;;;25.37;22.88;64625.66;5106354;28;20251;-80
2022/04/25 11:59:01;;;;;;;14.80;2.53;;;;;;;25.34;24.13;64621.97;5106993;28;20282;-80